• Join FlightAware (Why Join?)
  • Login
  • US Flag 
02:27AM EDT


 

Airport Tracker/Info


-or-


 

Live Flight TrackerFlight Track Log ✈ ASQ5181 ✈ 18-May-2013 ✈ KATL - KHOU

Flight Track Log - Related Links

Times and Time Zones

All times are in EDT time to prevent confusion due to time zone crossing. See the ASQ5181 flight status page for this flight to view local times or setup timezone preferences in your user account.

Time Position Orientation Groundspeed Altitude Reporting Facility
EDT Latitude Longitude Course Direction KTS MPH feet Rate Location/Type
04:51PM 33.6500 -84.4833 284° West 190 219 2,900  Level Atlanta TRACON
04:52PM 33.6667 -84.5667 284° West 256 295 5,200 2,700 Climbing Atlanta TRACON
04:53PM 33.6833 -84.6500 284° West 270 311 8,100 2,520 Climbing Atlanta TRACON
04:54PM 33.6397 -84.7872 249° West 293 337 11,600 1,980 Climbing Atlanta Center
04:55PM 33.6056 -84.8967 249° West 332 382 13,100 1,560 Climbing Atlanta Center
04:56PM 33.5733 -85.0136 252° West 368 423 14,800 1,800 Climbing Atlanta Center
04:57PM 33.5367 -85.1378 251° West 385 443 16,700 1,740 Climbing Atlanta Center
04:58PM 33.5064 -85.2519 252° West 399 459 18,300 1,500 Climbing Atlanta Center
04:59PM 33.4864 -85.3839 260° West 404 465 19,700 1,320 Climbing Atlanta Center
05:00PM 33.4639 -85.5278 259° West 420 483 21,000 1,320 Climbing Atlanta Center
05:01PM 33.4411 -85.6719 259° West 441 507 22,400 1,440 Climbing Atlanta Center
05:02PM 33.4206 -85.8108 260° West 441 507 23,900 1,500 Climbing Atlanta Center
05:03PM 33.3953 -85.9522 258° West 441 507 25,400 1,500 Climbing Atlanta Center
05:04PM 33.3742 -86.0983 260° West 441 507 26,900 1,500 Climbing Atlanta Center
05:05PM 33.3486 -86.2472 258° West 452 520 28,400 1,440 Climbing Atlanta Center
05:06PM 33.3272 -86.3883 260° West 446 513 29,800 1,260 Climbing Atlanta Center
05:07PM 33.3014 -86.5342 258° West 446 513 31,000 1,200 Climbing Atlanta Center
05:08PM 33.2797 -86.6728 259° West 446 513 32,200 1,200 Climbing Atlanta Center
05:09PM 33.2558 -86.8186 259° West 446 513 33,400 1,200 Climbing Atlanta Center
05:10PM 33.2253 -86.9567 255° West 446 513 34,600 1,140 Climbing Atlanta Center
05:11PM 33.1594 -87.0958 241° Southwest 440 506 35,700 660 Climbing Atlanta Center
05:12PM 33.1019 -87.2228 242° Southwest 435 501 36,000 120 Climbing Atlanta Center
05:13PM 33.0442 -87.3544 242° Southwest 440 506 36,000  Level Atlanta Center
05:14PM 32.9950 -87.4714 243° Southwest 447 514 36,000  Level Atlanta Center
05:15PM 32.9117 -87.6428 240° Southwest 446 513 36,000  Level Memphis Center
05:16PM 32.8539 -87.7756 243° Southwest 446 513 36,000  Level Memphis Center
05:17PM 32.7939 -87.9033 241° Southwest 451 519 36,000  Level Memphis Center
05:18PM 32.7439 -88.0208 243° Southwest 446 513 36,000  Level Memphis Center
05:19PM 32.6856 -88.1506 242° Southwest 446 513 36,000  Level Memphis Center
05:20PM 32.6253 -88.2778 241° Southwest 446 513 36,000  Level Memphis Center
05:21PM 32.5647 -88.4050 241° Southwest 446 513 36,000  Level Memphis Center
05:22PM 32.5061 -88.5319 241° Southwest 446 513 36,000  Level Memphis Center
05:23PM 32.4475 -88.6611 242° Southwest 446 513 36,000  Level Memphis Center
05:24PM 32.3864 -88.7878 240° Southwest 441 507 36,000  Level Memphis Center
05:25PM 32.3442 -88.9214 250° West 436 502 36,000  Level Memphis Center
05:26PM 32.3019 -89.0744 252° West 443 510 36,000  Level Memphis Center
05:27PM 32.2617 -89.2100 251° West 450 518 36,000  Level Memphis Center
05:28PM 32.2211 -89.3481 251° West 450 518 36,000  Level Memphis Center
05:29PM 32.1825 -89.4836 251° West 445 512 36,000  Level Memphis Center
05:30PM 32.1417 -89.6189 250° West 445 512 36,000  Level Memphis Center
05:31PM 32.1025 -89.7517 251° West 445 512 36,000  Level Memphis Center
05:32PM 32.0636 -89.8867 251° West 445 512 36,000  Level Memphis Center
05:33PM 32.0222 -90.0217 250° West 445 512 36,000  Level Memphis Center
05:34PM 31.9828 -90.1567 251° West 445 512 36,000  Level Memphis Center
05:35PM 31.9433 -90.2936 251° West 445 512 36,000  Level Memphis Center
05:37PM 31.8858 -90.4806 250° West 436 502 36,000  Level Houston Center
05:38PM 31.8464 -90.6153 251° West 437 503 36,000  Level Houston Center
05:39PM 31.7964 -90.7753 250° West 437 503 36,000  Level Houston Center
05:40PM 31.7578 -90.9081 251° West 435 501 36,000  Level Houston Center
05:41PM 31.7167 -91.0414 250° West 435 501 36,000  Level Houston Center
05:42PM 31.6711 -91.1886 250° West 436 502 36,000  Level Houston Center
05:43PM 31.6303 -91.3222 250° West 434 499 36,000  Level Houston Center
05:44PM 31.5889 -91.4547 250° West 433 498 36,000  Level Houston Center
05:45PM 31.5464 -91.5869 249° West 434 499 36,000  Level Houston Center
05:46PM 31.5056 -91.7194 250° West 433 498 36,000  Level Houston Center
05:47PM 31.4639 -91.8514 250° West 430 495 36,000  Level Houston Center
05:48PM 31.4125 -92.0111 249° West 433 498 36,000  Level Houston Center
05:49PM 31.3750 -92.1250 249° West 427 491 36,000  Level Houston Center
05:50PM 31.3261 -92.2792 250° West 431 496 36,000  Level Houston Center
05:51PM 31.2828 -92.4117 249° West 438 504 36,000  Level Houston Center
05:52PM 31.2381 -92.5425 248° West 438 504 36,000  Level Houston Center
05:54PM 31.1864 -92.6703 245° Southwest 436 502 36,000  Level Houston Center
05:55PM 31.1353 -92.7969 245° Southwest 435 501 36,000  Level Houston Center
05:56PM 31.0842 -92.9244 245° Southwest 435 501 36,000  Level Houston Center
05:57PM 31.0244 -93.0756 245° Southwest 432 497 36,000  Level Houston Center
05:58PM 30.9742 -93.2011 245° Southwest 430 495 36,000  Level Houston Center
05:59PM 30.9225 -93.3258 244° Southwest 431 496 36,000 -540 Level Houston Center
06:00PM 30.8711 -93.4522 245° Southwest 434 499 34,900 -1,680 Descending Houston Center
06:01PM 30.8192 -93.5792 245° Southwest 437 503 32,600 -2,160 Descending Houston Center
06:02PM 30.7683 -93.7033 245° Southwest 432 497 30,500 -2,400 Descending Houston Center
06:03PM 30.7075 -93.8494 244° Southwest 425 489 27,800 -2,400 Descending Houston Center
06:04PM 30.6581 -93.9714 245° Southwest 420 483 25,600 -2,160 Descending Houston Center
06:05PM 30.6086 -94.0922 245° Southwest 417 480 23,400 -2,220 Descending Houston Center
06:05PM 30.5761 -94.1689 244° Southwest 417 480 22,100 -2,100 Descending Houston Center
06:06PM 30.5586 -94.2131 245° Southwest 417 480 21,300 -1,980 Descending Houston Center
06:06PM 30.5322 -94.2769 244° Southwest 415 478 20,300 -1,980 Descending Houston Center
06:07PM 30.5092 -94.3308 244° Southwest 408 470 19,300 -2,100 Descending Houston Center
06:07PM 30.4844 -94.3900 244° Southwest 406 467 18,400 -1,980 Descending Houston Center
06:08PM 30.4597 -94.4483 244° Southwest 406 467 17,300 -1,980 Descending Houston Center
06:08PM 30.4353 -94.5081 245° Southwest 407 468 16,400 -2,280 Descending Houston Center
06:09PM 30.4014 -94.5872 244° Southwest 406 467 15,000 -1,980 Descending Houston Center
06:09PM 30.3856 -94.6258 245° Southwest 406 467 14,400 -1,860 Descending Houston Center
06:10PM 30.3542 -94.7022 245° Southwest 400 460 13,100 -1,440 Descending Houston Center
06:10PM 30.3378 -94.7386 242° Southwest 391 450 13,000 -540 Descending Houston Center
06:11PM 30.3047 -94.8158 244° Southwest 396 456 12,600 -840 Descending Houston Center
06:11PM 30.2775 -94.8553 231° Southwest 393 452 12,200 -1,200 Descending Houston Center
06:12PM 30.2397 -94.9139 233° Southwest 387 445 11,400 -1,380 Descending Houston Center
06:12PM 30.2133 -94.9553 234° Southwest 379 436 10,800 -1,260 Descending Houston Center
06:13PM 30.1769 -95.0114 233° Southwest 381 438 10,100 -840 Descending Houston Center
06:13PM 30.1489 -95.0503 230° Southwest 372 428 10,000 -120 Descending Houston Center
06:14PM 30.0997 -95.0856 212° Southwest 374 430 10,000  Level Houston Center
06:14PM 30.0592 -95.1025 200° South 365 420 10,000  Level Houston Center
06:15PM 29.9867 -95.1353 201° Southwest 366 421 10,000  Level Houston Center
06:15PM 29.9581 -95.1461 198° South 365 420 10,000  Level Houston Center
06:16PM 29.8931 -95.1753 201° Southwest 361 415 10,000  Level Houston Center
06:16PM 29.8675 -95.1864 201° Southwest 310 357 10,000 -780 Level Houston Center
06:17PM 29.8183 -95.2078 201° Southwest 300 345 9,200 -1,380 Descending Houston Center
06:17PM 29.7925 -95.2172 198° South 269 310 8,600 -1,680 Descending Houston Center
06:18PM 29.7489 -95.2378 202° Southwest 274 315 7,500 -1,560 Descending Houston Center
06:18PM 29.7239 -95.2472 198° South 262 302 7,000 -1,380 Descending Houston Center
06:19PM 29.6833 -95.2658 202° Southwest 260 299 6,100 -1,020 Descending Houston Center
06:19PM 29.6575 -95.2769 200° South 251 289 6,000 -120 Descending Houston Center
06:20PM 29.6392 -95.3200 244° Southwest 268 308 6,000 -900 Level Houston Center
06:21PM 29.6503 -95.4039 279° West 248 285 4,400 -1,740 Descending Houston Center
06:22PM 29.6997 -95.4283 337° Northwest 219 252 2,500 -1,080 Descending Houston Center
06:23PM 29.7147 -95.3736 72° East 196 226 2,200 -540 Descending Houston Center
06:24PM 29.6928 -95.3350 123° Southeast 161 185 1,400 -780 Descending Houston Center
06:25PM 29.6661 -95.3042 135° Southeast 145 167 600 -660 Descending Houston Center
06:26PM 29.6367 -95.2689 134° Southeast 140 161 100 -540 Descending Houston Center